Time;durP1;ratioP1;P1;durP2;ratioP2;P2;SDS_P1;SDS_P2;PMS_P1;PMS_P2;Temp;Humidity;BMP_temperature;BMP_pressure;BME280_temperature;BME280_humidity;BME280_pressure;Samples;Min_cycle;Max_cycle;Signal;HPM_P1;HPM_P2
2022/05/16 00:02:15;;;;;;;6.10;3.87;;;14.00;1.00;;;;;;6180554;28;20767;-55
2022/05/16 00:05:19;;;;;;;4.93;4.07;;;14.00;1.00;;;;;;6196445;28;20293;-55
2022/05/16 00:08:22;;;;;;;8.10;4.10;;;13.90;1.00;;;;;;6192709;28;20247;-56
2022/05/16 00:11:25;;;;;;;6.60;3.80;;;14.00;1.00;;;;;;6183691;28;20301;-55
2022/05/16 00:14:28;;;;;;;5.67;3.97;;;13.90;1.00;;;;;;6186571;28;20232;-55
2022/05/16 00:17:32;;;;;;;3.73;3.43;;;13.90;1.00;;;;;;6169894;28;20595;-54
2022/05/16 00:20:35;;;;;;;3.97;3.67;;;13.80;1.00;;;;;;6160757;28;20387;-55
2022/05/16 00:23:38;;;;;;;5.77;4.13;;;13.90;1.00;;;;;;6163370;28;20248;-54
2022/05/16 00:26:41;;;;;;;4.27;3.77;;;13.70;1.00;;;;;;6159564;28;20906;-59
2022/05/16 00:29:43;;;;;;;5.17;4.10;;;13.70;1.00;;;;;;6161574;28;20287;-54
2022/05/16 00:32:48;;;;;;;5.33;4.83;;;13.70;1.00;;;;;;6165857;28;20242;-55
2022/05/16 00:35:51;;;;;;;7.00;5.50;;;13.70;1.00;;;;;;6199902;28;20256;-54
2022/05/16 00:38:54;;;;;;;8.10;6.37;;;13.70;1.00;;;;;;6193121;28;20419;-56
2022/05/16 00:41:58;;;;;;;8.33;7.07;;;13.70;1.00;;;;;;6178330;28;20326;-55
2022/05/16 00:45:01;;;;;;;9.13;6.40;;;13.60;1.00;;;;;;6187739;28;20837;-55
2022/05/16 00:48:06;;;;;;;7.20;6.50;;;13.60;1.00;;;;;;6191372;28;20400;-58
2022/05/16 00:51:13;;;;;;;6.10;5.50;;;13.60;1.00;;;;;;6186695;28;20279;-55
2022/05/16 00:54:20;;;;;;;7.57;5.20;;;13.60;1.00;;;;;;6162628;28;20331;-54
2022/05/16 00:57:26;;;;;;;5.83;5.23;;;13.60;1.00;;;;;;6159651;28;20249;-54
2022/05/16 01:00:32;;;;;;;6.00;4.43;;;13.50;1.00;;;;;;6162075;28;20541;-55
2022/05/16 01:07:03;;;;;;;7.60;4.60;;;13.50;1.00;;;;;;6190784;28;20561;-55
2022/05/16 01:10:08;;;;;;;7.03;4.53;;;13.50;1.00;;;;;;6184753;28;20435;-55
2022/05/16 01:13:12;;;;;;;6.77;4.17;;;13.40;1.00;;;;;;6159976;28;20671;-55
2022/05/16 01:16:14;;;;;;;9.33;5.03;;;13.40;1.00;;;;;;6160338;28;20245;-55
2022/05/16 01:19:19;;;;;;;5.80;4.20;;;13.40;1.00;;;;;;6160380;28;20253;-55
2022/05/16 01:22:32;;;;;;;4.83;4.43;;;13.30;1.00;;;;;;6159953;28;20567;-55
2022/05/16 01:25:39;;;;;;;6.33;4.73;;;13.30;1.00;;;;;;6158734;28;20780;-55
2022/05/16 01:28:42;;;;;;;6.67;4.23;;;13.30;1.00;;;;;;6159063;28;20268;-55
2022/05/16 01:31:45;;;;;;;10.17;4.87;;;13.30;1.00;;;;;;6159668;28;20371;-55
2022/05/16 01:34:49;;;;;;;6.37;4.30;;;13.30;1.00;;;;;;6188864;28;20242;-56
2022/05/16 01:41:18;;;;;;;5.03;4.60;;;13.20;1.00;;;;;;6169687;28;20238;-56
2022/05/16 01:44:21;;;;;;;6.47;4.43;;;13.20;1.00;;;;;;6169326;28;20323;-54
2022/05/16 01:47:24;;;;;;;4.83;4.07;;;13.10;1.00;;;;;;6159230;28;20240;-56
2022/05/16 01:50:27;;;;;;;7.53;5.00;;;13.10;1.00;;;;;;6159191;28;20338;-55
2022/05/16 01:53:31;;;;;;;6.47;4.57;;;13.10;1.00;;;;;;6159815;28;20319;-55
2022/05/16 01:56:35;;;;;;;4.93;4.30;;;13.00;1.00;;;;;;6157369;28;20333;-55
2022/05/16 01:59:39;;;;;;;5.87;4.40;;;13.10;1.00;;;;;;6163148;28;20240;-56
2022/05/16 02:02:43;;;;;;;4.87;4.47;;;13.00;1.00;;;;;;6178359;28;20237;-55
2022/05/16 02:05:46;;;;;;;5.43;4.30;;;13.00;1.00;;;;;;6193458;28;20249;-54
2022/05/16 02:08:51;;;;;;;6.57;4.33;;;13.00;1.00;;;;;;6191479;28;20231;-54
2022/05/16 02:11:54;;;;;;;5.03;3.80;;;13.00;1.00;;;;;;6177779;28;20243;-54
2022/05/16 02:14:57;;;;;;;7.40;4.43;;;13.00;1.00;;;;;;6183465;28;20236;-55
2022/05/16 02:18:01;;;;;;;4.87;4.03;;;12.90;1.00;;;;;;6182497;28;20742;-56
2022/05/16 02:24:50;;;;;;;5.53;4.10;;;13.00;1.00;;;;;;6182774;28;20240;-55
2022/05/16 02:27:54;;;;;;;3.93;3.63;;;12.90;1.00;;;;;;6177589;28;20858;-55
2022/05/16 02:30:57;;;;;;;5.20;3.97;;;12.90;1.00;;;;;;6168933;28;20243;-56
2022/05/16 02:34:01;;;;;;;4.30;3.73;;;12.80;1.00;;;;;;6190478;28;20235;-55
2022/05/16 02:37:04;;;;;;;5.17;3.97;;;12.80;1.00;;;;;;6195821;28;20752;-55
2022/05/16 02:40:10;;;;;;;6.33;3.90;;;12.80;1.00;;;;;;6172138;28;20327;-55
2022/05/16 02:43:13;;;;;;;6.07;4.43;;;12.80;1.00;;;;;;6179578;28;20259;-55
2022/05/16 02:46:15;;;;;;;6.13;3.70;;;12.80;1.00;;;;;;6180891;28;20314;-55
2022/05/16 02:49:18;;;;;;;4.53;4.13;;;12.80;1.00;;;;;;6158437;28;20243;-54
2022/05/16 02:52:21;;;;;;;4.23;3.97;;;12.70;1.00;;;;;;6157468;28;20393;-54
2022/05/16 02:55:26;;;;;;;5.07;4.33;;;12.70;1.00;;;;;;6157730;28;20386;-56
2022/05/16 02:58:28;;;;;;;6.10;4.20;;;12.80;1.00;;;;;;6157494;28;20745;-55
2022/05/16 03:01:34;;;;;;;5.87;4.57;;;12.80;1.00;;;;;;6158022;28;20237;-55
2022/05/16 03:04:38;;;;;;;5.07;4.57;;;12.70;1.00;;;;;;6185119;28;20236;-54
2022/05/16 03:07:40;;;;;;;4.07;3.77;;;12.70;1.00;;;;;;6191656;28;20320;-55
2022/05/16 03:10:48;;;;;;;4.53;4.10;;;12.60;1.00;;;;;;6179301;28;20325;-55
2022/05/16 03:13:51;;;;;;;4.63;4.23;;;12.70;1.00;;;;;;6181471;28;20268;-55
2022/05/16 03:16:55;;;;;;;4.50;4.10;;;12.70;1.00;;;;;;6175892;28;20250;-55
2022/05/16 03:20:00;;;;;;;4.80;4.23;;;12.70;1.00;;;;;;6181224;28;20236;-55
2022/05/16 03:23:06;;;;;;;6.00;4.60;;;12.60;1.00;;;;;;6171911;28;20237;-55
2022/05/16 03:26:10;;;;;;;6.63;4.53;;;12.60;1.00;;;;;;6202455;28;20631;-55
2022/05/16 03:29:14;;;;;;;7.80;4.00;;;12.50;1.00;;;;;;6205578;28;20258;-55
2022/05/16 03:32:17;;;;;;;5.37;4.00;;;12.50;1.00;;;;;;6180407;28;20236;-55
2022/05/16 03:35:20;;;;;;;5.87;4.47;;;12.50;1.00;;;;;;6181084;28;20375;-55
2022/05/16 03:41:49;;;;;;;4.47;3.97;;;12.50;1.00;;;;;;6173523;28;20236;-54
2022/05/16 03:44:53;;;;;;;6.63;4.47;;;12.40;1.00;;;;;;6181739;28;20322;-55
2022/05/16 03:47:56;;;;;;;4.63;4.30;;;12.40;1.00;;;;;;6185139;28;20326;-54
2022/05/16 03:51:00;;;;;;;5.50;4.57;;;12.40;1.00;;;;;;6173951;28;20428;-56
2022/05/16 03:54:03;;;;;;;5.07;3.90;;;12.40;1.00;;;;;;6181042;28;20347;-55
2022/05/16 03:57:07;;;;;;;7.00;4.50;;;12.40;1.00;;;;;;6188759;28;20319;-54
2022/05/16 04:00:12;;;;;;;6.47;4.50;;;12.40;1.00;;;;;;6187280;28;20235;-54
2022/05/16 04:03:17;;;;;;;5.63;4.07;;;12.40;1.00;;;;;;6189862;28;20242;-55
2022/05/16 04:06:19;;;;;;;8.53;5.10;;;12.40;1.00;;;;;;6182490;28;20375;-52
2022/05/16 04:09:22;;;;;;;7.70;4.50;;;12.40;1.00;;;;;;6191683;28;20535;-53
2022/05/16 04:12:27;;;;;;;7.27;4.47;;;12.40;1.00;;;;;;6186209;28;20294;-53
2022/05/16 04:15:33;;;;;;;9.20;4.50;;;12.40;1.00;;;;;;6187132;28;20341;-55
2022/05/16 04:18:36;;;;;;;4.83;4.37;;;12.40;1.00;;;;;;6188851;28;20236;-55
2022/05/16 04:21:39;;;;;;;4.00;3.70;;;12.30;1.00;;;;;;6190906;28;20378;-56
2022/05/16 04:24:45;;;;;;;8.47;4.70;;;12.40;1.00;;;;;;6194491;28;20422;-54
2022/05/16 04:27:50;;;;;;;4.53;4.23;;;12.50;1.00;;;;;;6192644;28;20248;-55
2022/05/16 04:30:53;;;;;;;7.13;4.43;;;12.60;1.00;;;;;;6190807;28;20382;-53
2022/05/16 04:33:55;;;;;;;4.73;4.27;;;12.50;1.00;;;;;;6190874;28;20341;-56
2022/05/16 04:36:58;;;;;;;8.27;4.53;;;12.60;1.00;;;;;;6190590;28;20322;-54
2022/05/16 04:40:02;;;;;;;5.60;4.53;;;12.60;1.00;;;;;;6185942;28;20784;-56
2022/05/16 04:43:06;;;;;;;5.27;4.20;;;12.70;1.00;;;;;;6179109;28;20257;-55
2022/05/16 04:46:09;;;;;;;4.73;4.33;;;12.80;1.00;;;;;;6201954;28;20421;-54
2022/05/16 04:49:12;;;;;;;4.90;4.40;;;12.90;1.00;;;;;;6182758;28;20334;-56
2022/05/16 04:52:15;;;;;;;5.33;4.20;;;13.00;1.00;;;;;;6192280;28;20321;-55
2022/05/16 04:55:18;;;;;;;6.23;4.47;;;13.10;1.00;;;;;;6201155;28;20607;-55
2022/05/16 04:58:23;;;;;;;6.77;3.73;;;13.40;1.00;;;;;;6194943;28;20751;-55
2022/05/16 05:01:26;;;;;;;4.40;4.10;;;13.60;1.00;;;;;;6189303;28;20235;-55
2022/05/16 05:04:29;;;;;;;9.13;5.00;;;13.70;1.00;;;;;;6198995;28;20277;-59
2022/05/16 05:07:32;;;;;;;6.63;4.40;;;13.90;1.00;;;;;;6184696;28;20600;-56
2022/05/16 05:17:19;;;;;;;5.63;4.33;;;14.50;1.00;;;;;;6194485;28;20840;-54
2022/05/16 05:20:22;;;;;;;5.00;3.90;;;14.60;1.00;;;;;;6195862;28;20278;-58
2022/05/16 05:23:25;;;;;;;6.50;4.50;;;14.80;1.00;;;;;;6197668;28;20239;-56
2022/05/16 05:26:28;;;;;;;6.23;4.13;;;15.00;1.00;;;;;;6189347;28;20795;-55
2022/05/16 05:29:32;;;;;;;5.97;3.87;;;15.20;1.00;;;;;;6189434;28;20307;-56
2022/05/16 05:32:34;;;;;;;5.00;4.47;;;15.40;1.00;;;;;;6189442;28;20331;-55
2022/05/16 05:35:37;;;;;;;6.40;4.27;;;15.60;1.00;;;;;;6185879;28;20235;-55
2022/05/16 05:38:51;;;;;;;7.00;3.93;;;15.80;1.00;;;;;;6193194;28;20408;-56
2022/05/16 05:41:54;;;;;;;5.87;3.77;;;15.90;1.00;;;;;;6186372;28;20321;-55
2022/05/16 05:44:59;;;;;;;5.33;3.40;;;16.20;1.00;;;;;;6191995;28;20840;-56
2022/05/16 05:48:02;;;;;;;7.90;4.20;;;16.40;1.00;;;;;;6186808;28;20257;-56
2022/05/16 05:51:05;;;;;;;5.57;3.90;;;16.60;1.00;;;;;;6189853;28;20808;-55
2022/05/16 05:54:08;;;;;;;8.00;3.83;;;16.90;1.00;;;;;;6186619;28;20306;-56
2022/05/16 05:57:18;;;;;;;8.30;4.13;;;17.00;1.00;;;;;;6193102;28;20243;-56
2022/05/16 06:00:23;;;;;;;8.70;3.50;;;17.30;1.00;;;;;;6194087;28;20235;-56
2022/05/16 06:03:26;;;;;;;7.60;3.53;;;17.40;1.00;;;;;;6180453;28;20346;-55
2022/05/16 06:06:30;;;;;;;5.50;3.40;;;17.70;1.00;;;;;;6187972;28;20240;-56
2022/05/16 06:09:33;;;;;;;5.57;3.63;;;17.80;1.00;;;;;;6184967;28;20271;-56
2022/05/16 06:12:36;;;;;;;5.80;3.83;;;18.10;1.00;;;;;;6192663;28;20351;-56
2022/05/16 06:15:50;;;;;;;3.60;3.30;;;18.30;1.00;;;;;;6188379;28;20648;-55
2022/05/16 06:19:04;;;;;;;8.83;3.40;;;18.10;1.00;;;;;;6194899;28;20228;-53
2022/05/16 06:22:07;;;;;;;5.63;3.50;;;18.30;1.00;;;;;;6179609;28;20651;-58
2022/05/16 06:28:37;;;;;;;7.87;4.03;;;18.30;1.00;;;;;;6184747;28;20232;-54
2022/05/16 06:31:42;;;;;;;3.70;3.40;;;18.60;1.00;;;;;;6192847;28;20656;-55
2022/05/16 06:34:45;;;;;;;7.80;3.90;;;18.90;1.00;;;;;;6182018;28;20316;-56
2022/05/16 06:37:48;;;;;;;4.97;3.10;;;18.90;1.00;;;;;;6193712;28;20399;-56
2022/05/16 06:40:51;;;;;;;9.13;3.97;;;19.20;1.00;;;;;;6179969;28;20721;-57
2022/05/16 06:43:54;;;;;;;4.63;3.10;;;19.20;1.00;;;;;;6177934;28;20309;-56
2022/05/16 06:46:58;;;;;;;6.07;3.70;;;19.50;1.00;;;;;;6190254;28;20239;-55
2022/05/16 06:50:01;;;;;;;5.10;3.20;;;19.80;1.00;;;;;;6188069;28;20756;-54
2022/05/16 06:53:04;;;;;;;4.30;3.60;;;20.00;1.00;;;;;;6180600;28;20429;-55
2022/05/16 06:56:08;;;;;;;7.80;3.63;;;20.20;1.00;;;;;;6185292;28;20387;-55
2022/05/16 06:59:11;;;;;;;4.33;3.40;;;20.40;1.00;;;;;;6196358;28;20341;-55
2022/05/16 07:02:22;;;;;;;4.57;3.63;;;20.50;1.00;;;;;;6190004;28;20571;-55
2022/05/16 07:05:25;;;;;;;5.10;3.60;;;20.70;1.00;;;;;;6198090;28;20361;-56
2022/05/16 07:08:28;;;;;;;6.27;3.37;;;20.70;1.00;;;;;;6186446;28;20239;-55
2022/05/16 07:11:32;;;;;;;6.43;3.47;;;20.80;1.00;;;;;;6181960;28;20298;-55
2022/05/16 07:14:37;;;;;;;5.93;3.70;;;20.70;1.00;;;;;;6189697;28;20465;-55
2022/05/16 07:17:43;;;;;;;5.77;3.20;;;20.90;1.00;;;;;;6192545;28;20534;-55
2022/05/16 07:20:45;;;;;;;6.53;3.50;;;20.90;1.00;;;;;;6186346;28;20402;-55
2022/05/16 07:23:48;;;;;;;4.27;3.40;;;20.70;1.00;;;;;;6189467;28;20236;-57
2022/05/16 07:30:12;;;;;;;3.77;3.50;;;20.60;1.00;;;;;;6184330;28;20417;-57
2022/05/16 07:33:20;;;;;;;3.97;3.57;;;20.50;1.00;;;;;;6188268;28;20289;-56
2022/05/16 07:36:23;;;;;;;7.10;3.97;;;20.40;1.00;;;;;;6188291;28;20442;-57
2022/05/16 07:39:35;;;;;;;4.27;3.50;;;20.30;1.00;;;;;;6179022;28;20684;-54
2022/05/16 07:42:37;;;;;;;7.07;3.67;;;20.30;1.00;;;;;;6185682;28;20317;-56
2022/05/16 07:45:40;;;;;;;3.93;3.60;;;20.20;1.00;;;;;;6192389;28;20246;-56
2022/05/16 07:48:44;;;;;;;3.97;3.60;;;20.10;1.00;;;;;;6190934;28;20240;-55
2022/05/16 07:51:47;;;;;;;6.00;3.60;;;20.00;1.00;;;;;;6197003;28;20231;-56
2022/05/16 07:54:50;;;;;;;3.90;3.40;;;19.90;1.00;;;;;;6198424;28;20318;-55
2022/05/16 07:57:53;;;;;;;6.80;3.70;;;20.00;1.00;;;;;;6192139;28;20515;-54
2022/05/16 08:00:57;;;;;;;4.13;3.23;;;19.90;1.00;;;;;;6202345;28;20239;-54
2022/05/16 08:04:01;;;;;;;3.97;3.53;;;19.80;1.00;;;;;;6203137;28;20378;-55
2022/05/16 08:07:04;;;;;;;3.40;3.07;;;19.90;1.00;;;;;;6184125;28;20498;-55
2022/05/16 08:13:30;;;;;;;6.23;3.67;;;20.10;1.00;;;;;;6197458;28;20275;-55
2022/05/16 08:16:33;;;;;;;5.07;3.27;;;20.10;1.00;;;;;;6189443;28;20243;-54
2022/05/16 08:19:37;;;;;;;8.10;3.30;;;20.20;1.00;;;;;;6200769;28;20248;-55
2022/05/16 08:22:40;;;;;;;4.27;3.00;;;20.20;1.00;;;;;;6192793;28;20740;-54
2022/05/16 08:25:45;;;;;;;6.73;3.40;;;20.30;1.00;;;;;;6196442;28;20250;-55
2022/05/16 08:28:48;;;;;;;4.73;3.30;;;20.30;1.00;;;;;;6201451;28;20246;-56
2022/05/16 08:31:51;;;;;;;6.40;3.57;;;20.30;1.00;;;;;;6196543;28;20255;-56
2022/05/16 08:34:59;;;;;;;3.80;3.47;;;20.40;1.00;;;;;;6189947;28;20337;-55
2022/05/16 08:41:29;;;;;;;5.83;3.57;;;20.70;1.00;;;;;;6182723;28;20244;-55
2022/05/16 08:44:38;;;;;;;3.70;3.40;;;20.90;1.00;;;;;;6200546;28;20608;-57
2022/05/16 08:47:50;;;;;;;3.63;3.37;;;21.00;1.00;;;;;;6188948;28;20478;-55
2022/05/16 08:51:03;;;;;;;3.17;2.93;;;21.20;1.00;;;;;;6182784;28;20236;-55
2022/05/16 08:54:12;;;;;;;3.87;3.40;;;21.40;1.00;;;;;;6196074;28;20250;-55
2022/05/16 08:57:28;;;;;;;3.30;3.10;;;21.50;1.00;;;;;;6197275;28;20231;-55
2022/05/16 09:00:35;;;;;;;4.17;2.90;;;21.50;1.00;;;;;;6193851;28;20344;-56
2022/05/16 09:03:46;;;;;;;4.57;3.03;;;21.70;1.00;;;;;;6196148;28;20717;-54
2022/05/16 09:06:56;;;;;;;3.33;2.90;;;21.80;1.00;;;;;;6189226;28;20735;-54
2022/05/16 09:10:04;;;;;;;3.60;3.40;;;21.90;1.00;;;;;;6192670;28;20366;-56
2022/05/16 09:13:19;;;;;;;3.23;3.03;;;22.00;1.00;;;;;;6194742;28;20727;-55
2022/05/16 09:16:40;;;;;;;3.30;3.13;;;22.20;1.00;;;;;;6190208;28;20262;-54
2022/05/16 09:20:12;;;;;;;7.03;3.03;;;22.30;1.00;;;;;;6180915;28;20509;-55
2022/05/16 09:23:29;;;;;;;4.00;2.70;;;22.30;1.00;;;;;;6190119;28;20231;-54
2022/05/16 09:26:39;;;;;;;4.47;2.87;;;22.20;1.00;;;;;;6192603;28;20774;-54
2022/05/16 09:29:45;;;;;;;3.33;2.77;;;22.30;1.00;;;;;;6187244;28;21015;-56
2022/05/16 09:32:51;;;;;;;3.27;2.80;;;22.40;1.00;;;;;;6189415;28;20262;-56
2022/05/16 09:36:01;;;;;;;2.87;2.70;;;22.50;1.00;;;;;;6178161;28;20312;-56
2022/05/16 09:39:07;;;;;;;5.80;3.37;;;22.60;1.00;;;;;;6195186;28;20297;-55
2022/05/16 09:42:15;;;;;;;4.60;3.10;;;22.60;1.00;;;;;;6181051;28;20239;-54
2022/05/16 09:45:23;;;;;;;3.93;2.93;;;22.70;1.00;;;;;;6188338;28;20375;-54
2022/05/16 09:48:26;;;;;;;3.33;3.10;;;22.80;1.00;;;;;;6196140;28;20714;-54
2022/05/16 09:51:30;;;;;;;4.70;3.20;;;22.90;1.00;;;;;;6202397;28;20510;-54
2022/05/16 09:54:36;;;;;;;3.87;3.00;;;22.90;1.00;;;;;;6187670;28;20232;-55
2022/05/16 09:57:41;;;;;;;5.70;2.63;;;23.10;1.00;;;;;;6194382;28;20250;-54
2022/05/16 10:00:54;;;;;;;2.43;2.30;;;23.10;1.00;;;;;;6190876;28;20243;-54
2022/05/16 10:03:57;;;;;;;3.43;2.77;;;23.20;1.00;;;;;;6186413;28;20286;-55
2022/05/16 10:07:02;;;;;;;3.80;2.87;;;23.20;1.00;;;;;;6180254;28;20701;-54
2022/05/16 10:10:07;;;;;;;6.83;2.90;;;23.30;1.00;;;;;;6183899;28;20322;-53
2022/05/16 10:13:21;;;;;;;2.67;2.57;;;23.30;1.00;;;;;;6191322;28;20235;-55
2022/05/16 10:16:29;;;;;;;3.17;2.67;;;23.30;1.00;;;;;;6181312;28;20726;-54
2022/05/16 10:19:33;;;;;;;3.20;2.90;;;23.40;1.00;;;;;;6183880;28;20255;-55
2022/05/16 10:22:37;;;;;;;3.60;2.53;;;23.50;1.00;;;;;;6186198;28;20243;-56
2022/05/16 10:26:06;;;;;;;2.90;2.80;;;23.40;1.00;;;;;;6187677;28;20239;-57
2022/05/16 10:29:12;;;;;;;2.77;2.67;;;23.40;1.00;;;;;;6191890;28;20398;-56
2022/05/16 10:35:49;;;;;;;2.50;2.40;;;23.40;1.00;;;;;;6179165;28;20276;-55
2022/05/16 10:39:00;;;;;;;7.83;2.80;;;23.50;1.00;;;;;;6187901;28;20347;-58
2022/05/16 10:42:07;;;;;;;3.73;3.10;;;23.60;1.00;;;;;;6174157;28;20251;-61
2022/05/16 10:45:17;;;;;;;2.90;2.30;;;23.60;1.00;;;;;;6189698;28;20356;-56
2022/05/16 10:48:28;;;;;;;3.63;2.93;;;23.70;1.00;;;;;;6189273;28;20320;-54
2022/05/16 10:51:39;;;;;;;3.23;2.70;;;23.80;1.00;;;;;;6199114;28;20322;-54
2022/05/16 10:54:45;;;;;;;3.90;3.23;;;23.90;1.00;;;;;;6186131;28;20232;-56
2022/05/16 10:58:17;;;;;;;4.17;2.87;;;23.80;1.00;;;;;;6175953;28;20252;-56
2022/05/16 11:01:25;;;;;;;2.90;2.80;;;24.00;1.00;;;;;;6189894;28;20700;-54
2022/05/16 11:05:07;;;;;;;5.93;2.40;;;24.10;1.00;;;;;;6190264;28;20250;-55
2022/05/16 11:08:18;;;;;;;2.70;2.50;;;24.20;1.00;;;;;;6174083;28;20523;-54
2022/05/16 11:11:27;;;;;;;3.70;3.40;;;24.30;1.00;;;;;;6191667;28;20709;-54
2022/05/16 11:14:38;;;;;;;5.30;3.03;;;24.30;1.00;;;;;;6189982;28;20382;-55
2022/05/16 11:17:49;;;;;;;3.03;2.80;;;24.40;1.00;;;;;;6193104;28;20282;-54
2022/05/16 11:20:56;;;;;;;3.60;2.73;;;24.40;1.00;;;;;;6189226;28;20322;-54
2022/05/16 11:24:12;;;;;;;2.90;2.80;;;24.50;1.00;;;;;;6192710;28;20239;-55
2022/05/16 11:27:24;;;;;;;3.10;2.87;;;24.50;1.00;;;;;;6189493;28;20373;-56
2022/05/16 11:30:38;;;;;;;2.60;2.50;;;24.60;1.00;;;;;;6181255;28;20231;-58
2022/05/16 11:33:46;;;;;;;2.67;2.57;;;24.70;1.00;;;;;;6194972;28;20355;-55
2022/05/16 11:36:54;;;;;;;3.77;3.23;;;24.70;1.00;;;;;;6185785;28;20685;-55
2022/05/16 11:40:03;;;;;;;3.00;2.80;;;24.80;1.00;;;;;;6184852;28;20232;-55
2022/05/16 11:43:14;;;;;;;4.63;3.03;;;24.80;1.00;;;;;;6185417;28;20307;-54
2022/05/16 11:46:31;;;;;;;3.20;2.90;;;24.80;1.00;;;;;;6199119;28;20319;-55
2022/05/16 11:50:01;;;;;;;3.13;3.00;;;24.70;1.00;;;;;;6187672;28;20247;-55
2022/05/16 11:53:42;;;;;;;3.10;2.90;;;24.70;1.00;;;;;;6181397;28;20623;-55
2022/05/16 12:03:47;;;;;;;5.77;3.67;;;24.80;1.00;;;;;;6182245;28;20232;-54
2022/05/16 12:06:54;;;;;;;3.03;2.93;;;25.10;1.00;;;;;;6192154;28;20266;-55
2022/05/16 12:10:01;;;;;;;3.20;3.00;;;25.20;1.00;;;;;;6186558;28;20236;-55
2022/05/16 12:13:18;;;;;;;4.97;3.50;;;25.30;1.00;;;;;;6193905;28;20749;-55
2022/05/16 12:16:28;;;;;;;4.07;3.77;;;25.30;1.00;;;;;;6192463;28;20531;-55
2022/05/16 12:19:37;;;;;;;4.07;3.80;;;25.40;1.00;;;;;;6191853;28;20242;-55
2022/05/16 12:22:45;;;;;;;5.07;4.00;;;25.40;1.00;;;;;;6193062;28;20813;-55
2022/05/16 12:25:52;;;;;;;5.43;4.97;;;25.60;1.00;;;;;;6194933;28;20258;-56
2022/05/16 12:29:15;;;;;;;5.47;4.90;;;25.60;1.00;;;;;;6189174;28;20733;-54
2022/05/16 12:32:37;;;;;;;5.57;5.10;;;25.60;1.00;;;;;;6187454;28;20268;-54
2022/05/16 12:35:46;;;;;;;5.30;4.97;;;25.60;1.00;;;;;;6187104;28;20825;-56
2022/05/16 12:38:58;;;;;;;5.30;5.00;;;25.70;1.00;;;;;;6184166;28;20248;-54
2022/05/16 12:42:19;;;;;;;5.30;5.00;;;25.80;1.00;;;;;;6183602;28;20248;-55
2022/05/16 12:45:39;;;;;;;5.83;5.43;;;25.90;1.00;;;;;;6195581;28;20232;-56
2022/05/16 12:48:53;;;;;;;6.97;6.27;;;25.90;1.00;;;;;;6193133;28;20243;-55
2022/05/16 12:52:00;;;;;;;5.87;5.43;;;26.00;1.00;;;;;;6193896;28;20491;-54
2022/05/16 12:55:26;;;;;;;7.03;6.43;;;26.00;1.00;;;;;;6192187;28;20267;-55
2022/05/16 12:58:39;;;;;;;5.60;5.40;;;26.00;1.00;;;;;;6185448;28;20909;-55
2022/05/16 13:01:46;;;;;;;8.20;6.67;;;25.90;1.00;;;;;;6188442;28;20438;-54
2022/05/16 13:05:05;;;;;;;7.80;7.07;;;26.00;1.00;;;;;;6198354;28;20245;-54
2022/05/16 13:08:23;;;;;;;11.20;6.33;;;26.10;1.00;;;;;;6192851;28;20459;-55
2022/05/16 13:11:34;;;;;;;7.37;6.67;;;26.10;1.00;;;;;;6194254;28;20540;-55
2022/05/16 13:14:47;;;;;;;6.70;6.10;;;26.20;1.00;;;;;;6197731;28;20240;-54
2022/05/16 13:17:53;;;;;;;6.00;5.60;;;26.20;1.00;;;;;;6198728;28;20302;-55
2022/05/16 13:21:00;;;;;;;6.37;5.80;;;26.20;1.00;;;;;;6198171;28;20239;-56
2022/05/16 13:24:09;;;;;;;6.70;6.07;;;26.10;1.00;;;;;;6189828;28;20856;-55
2022/05/16 13:30:41;;;;;;;7.50;5.57;;;26.10;1.00;;;;;;6199779;28;20321;-56
2022/05/16 13:33:44;;;;;;;6.43;5.63;;;26.20;1.00;;;;;;6197986;28;20646;-54
2022/05/16 13:36:47;;;;;;;6.43;5.73;;;26.20;1.00;;;;;;6192191;28;20331;-55
2022/05/16 13:39:56;;;;;;;5.73;5.43;;;26.20;1.00;;;;;;6189796;28;20240;-55
2022/05/16 13:42:58;;;;;;;6.07;5.33;;;26.30;1.00;;;;;;6184128;28;20381;-53
2022/05/16 13:46:10;;;;;;;5.63;5.33;;;26.40;1.00;;;;;;6199130;28;20491;-54
2022/05/16 13:49:15;;;;;;;5.40;5.00;;;26.50;1.00;;;;;;6189633;28;20659;-54
2022/05/16 13:52:21;;;;;;;4.83;4.57;;;26.50;1.00;;;;;;6201694;28;20243;-55
2022/05/16 13:55:26;;;;;;;5.50;5.10;;;26.50;1.00;;;;;;6191941;28;20238;-54
2022/05/16 13:58:32;;;;;;;5.00;4.70;;;26.50;1.00;;;;;;6189717;28;20232;-54
2022/05/16 14:01:35;;;;;;;5.17;4.97;;;26.50;1.00;;;;;;6196616;28;20712;-53
2022/05/16 14:04:43;;;;;;;6.23;5.20;;;26.50;1.00;;;;;;6195883;28;20264;-55
2022/05/16 14:07:47;;;;;;;4.77;4.57;;;26.50;1.00;;;;;;6189574;28;20259;-51
2022/05/16 14:10:53;;;;;;;4.90;4.60;;;26.50;1.00;;;;;;6191850;28;20235;-55
2022/05/16 14:13:56;;;;;;;5.00;4.67;;;26.50;1.00;;;;;;6197161;28;20731;-54
2022/05/16 14:17:02;;;;;;;4.67;4.27;;;26.50;1.00;;;;;;6189835;28;20231;-55
2022/05/16 14:20:15;;;;;;;6.47;4.63;;;26.60;1.00;;;;;;6192421;28;20244;-54
2022/05/16 14:23:34;;;;;;;7.83;4.20;;;26.60;1.00;;;;;;6182712;28;20240;-55
2022/05/16 14:26:49;;;;;;;4.90;4.50;;;26.60;1.00;;;;;;6181108;28;20397;-60
2022/05/16 14:29:59;;;;;;;4.67;4.23;;;26.80;1.00;;;;;;6195485;28;20622;-55
2022/05/16 14:33:07;;;;;;;3.93;3.83;;;26.60;1.00;;;;;;6203605;28;20243;-58
2022/05/16 14:36:11;;;;;;;7.77;4.80;;;26.60;1.00;;;;;;6177525;28;20252;-54
2022/05/16 14:39:19;;;;;;;5.13;4.30;;;26.60;1.00;;;;;;6190123;28;20782;-55
2022/05/16 14:42:44;;;;;;;6.13;3.47;;;26.60;1.00;;;;;;6183272;28;20732;-56
2022/05/16 14:49:20;;;;;;;4.37;3.97;;;26.50;1.00;;;;;;6191869;28;20651;-54
2022/05/16 14:52:26;;;;;;;4.00;3.70;;;26.30;1.00;;;;;;6185598;28;20236;-54
2022/05/16 14:55:38;;;;;;;4.00;3.50;;;26.10;1.00;;;;;;6184091;28;20618;-54
2022/05/16 14:58:42;;;;;;;5.73;3.77;;;25.90;1.00;;;;;;6187549;28;20240;-54
2022/05/16 15:05:17;;;;;;;4.17;3.43;;;26.20;1.00;;;;;;6135338;28;20327;-54
2022/05/16 15:08:24;;;;;;;4.27;3.53;;;26.40;1.00;;;;;;6182173;28;20681;-53
2022/05/16 15:11:30;;;;;;;3.77;3.57;;;26.70;1.00;;;;;;6171960;28;20624;-54
2022/05/16 15:14:35;;;;;;;3.67;3.37;;;26.80;1.00;;;;;;6185339;28;20239;-54
2022/05/16 15:17:38;;;;;;;3.90;3.60;;;26.80;1.00;;;;;;6190346;28;20361;-54
2022/05/16 15:20:42;;;;;;;5.13;3.50;;;26.70;1.00;;;;;;6180938;28;20328;-55
2022/05/16 15:23:55;;;;;;;6.43;3.27;;;26.70;1.00;;;;;;6203501;28;20322;-54
2022/05/16 15:26:58;;;;;;;3.20;2.83;;;26.60;1.00;;;;;;6187242;28;20254;-54
2022/05/16 15:30:04;;;;;;;3.40;3.20;;;26.60;1.00;;;;;;6187552;28;21804;-54
2022/05/16 15:33:07;;;;;;;5.53;3.00;;;26.50;1.00;;;;;;6194985;28;20537;-55
2022/05/16 15:36:11;;;;;;;5.33;3.50;;;26.40;1.00;;;;;;6179832;28;20326;-55
2022/05/16 15:39:18;;;;;;;3.67;3.43;;;26.30;1.00;;;;;;6191365;28;20285;-54
2022/05/16 15:42:21;;;;;;;3.37;3.17;;;26.20;1.00;;;;;;6153117;28;20652;-53
2022/05/16 15:45:25;;;;;;;3.40;3.17;;;26.10;1.00;;;;;;6183841;28;20548;-53
2022/05/16 15:48:29;;;;;;;3.70;3.40;;;26.10;1.00;;;;;;6184488;28;20247;-54
2022/05/16 15:51:31;;;;;;;3.47;3.27;;;26.10;1.00;;;;;;6179025;28;20236;-55
2022/05/16 15:54:34;;;;;;;3.50;3.20;;;26.00;1.00;;;;;;6186758;28;20320;-55
2022/05/16 15:57:37;;;;;;;3.50;3.20;;;26.00;1.00;;;;;;6189649;28;20335;-55
2022/05/16 16:00:48;;;;;;;3.43;3.20;;;26.00;1.00;;;;;;6189537;28;20487;-55
2022/05/16 16:10:33;;;;;;;4.30;2.87;;;25.90;1.00;;;;;;6171996;28;20616;-54
2022/05/16 16:13:51;;;;;;;4.10;2.90;;;25.80;1.00;;;;;;6175683;28;20233;-56
2022/05/16 16:16:55;;;;;;;5.53;3.03;;;25.90;1.00;;;;;;6199367;28;20701;-54
2022/05/16 16:20:03;;;;;;;3.77;3.47;;;25.90;1.00;;;;;;6194572;28;20938;-56
2022/05/16 16:23:06;;;;;;;3.30;3.00;;;25.90;1.00;;;;;;6198396;28;20623;-54
2022/05/16 16:26:09;;;;;;;7.27;3.13;;;25.90;1.00;;;;;;6193196;28;20251;-55
2022/05/16 16:29:12;;;;;;;3.60;2.93;;;25.90;1.00;;;;;;6192315;28;20914;-55
2022/05/16 16:32:16;;;;;;;6.17;3.53;;;25.90;1.00;;;;;;6187780;28;20248;-56
2022/05/16 16:35:20;;;;;;;5.53;3.03;;;25.90;1.00;;;;;;6182014;28;20235;-54
2022/05/16 16:38:24;;;;;;;5.63;2.90;;;25.90;1.00;;;;;;6183938;28;20240;-55
2022/05/16 16:41:27;;;;;;;5.00;3.20;;;25.80;1.00;;;;;;6183405;28;20690;-56
2022/05/16 16:44:31;;;;;;;3.77;3.30;;;25.70;1.00;;;;;;6190089;28;20300;-56
2022/05/16 16:47:37;;;;;;;3.33;3.03;;;25.50;1.00;;;;;;6189166;28;20236;-54
2022/05/16 16:50:41;;;;;;;3.30;3.00;;;25.40;1.00;;;;;;6177575;28;20642;-56
2022/05/16 17:00:26;;;;;;;8.07;2.97;;;25.10;1.00;;;;;;6186280;28;20271;-56
2022/05/16 17:03:30;;;;;;;3.67;3.30;;;25.10;1.00;;;;;;6197779;28;20321;-54
2022/05/16 17:06:38;;;;;;;3.30;2.90;;;25.00;1.00;;;;;;6191856;28;20244;-54
2022/05/16 17:09:41;;;;;;;6.07;3.20;;;25.00;1.00;;;;;;6192055;28;20735;-54
2022/05/16 17:12:45;;;;;;;3.27;2.97;;;25.00;1.00;;;;;;6193387;28;20250;-54
2022/05/16 17:15:48;;;;;;;3.23;2.93;;;24.90;1.00;;;;;;6195675;28;20514;-54
2022/05/16 17:18:54;;;;;;;3.00;2.80;;;24.90;1.00;;;;;;6197726;28;20248;-54
2022/05/16 17:21:56;;;;;;;4.37;3.10;;;24.80;1.00;;;;;;6193437;28;20294;-55
2022/05/16 17:25:00;;;;;;;3.47;3.37;;;24.70;1.00;;;;;;6190684;28;20318;-54
2022/05/16 17:28:04;;;;;;;3.13;2.83;;;24.60;1.00;;;;;;6194461;28;20259;-54
2022/05/16 17:31:07;;;;;;;3.47;3.27;;;24.50;1.00;;;;;;6190009;28;20290;-53
2022/05/16 17:34:11;;;;;;;5.87;2.97;;;24.40;1.00;;;;;;6174415;28;20274;-55